createdAt,value
2018-08-25T00:00:52.324Z,43.07
2018-08-25T00:03:22.190Z,44.23
2018-08-25T00:05:51.982Z,44.96
2018-08-25T00:08:21.753Z,43.39
2018-08-25T00:10:51.590Z,42.89
2018-08-25T00:13:21.413Z,43.97
2018-08-25T00:15:51.178Z,43.12
2018-08-25T00:18:21.019Z,43.60
2018-08-25T00:20:50.861Z,43.47
2018-08-25T00:23:20.953Z,43.68
2018-08-25T00:25:50.814Z,43.77
2018-08-25T00:28:21.430Z,43.63
2018-08-25T00:31:29.976Z,43.74
2018-08-25T00:34:00.569Z,44.20
2018-08-25T00:36:31.097Z,44.85
2018-08-25T00:39:01.630Z,46.13
2018-08-25T00:41:32.430Z,45.66
2018-08-25T00:44:02.986Z,45.78
2018-08-25T00:46:33.350Z,48.48
2018-08-25T00:49:03.930Z,48.84
2018-08-25T00:51:34.346Z,48.76
2018-08-25T00:54:05.078Z,46.82
2018-08-25T00:56:35.278Z,46.12
2018-08-25T00:59:06.574Z,47.36
2018-08-25T01:01:37.054Z,46.09
2018-08-25T01:04:08.063Z,46.16
2018-08-25T01:06:38.615Z,45.20
2018-08-25T01:09:11.281Z,47.64
2018-08-25T01:11:42.307Z,46.68
2018-08-25T01:14:12.873Z,46.24
2018-08-25T01:16:43.347Z,45.97
2018-08-25T01:19:14.869Z,44.99
2018-08-25T01:21:45.211Z,45.16
2018-08-25T01:24:15.548Z,46.80
2018-08-25T01:26:46.113Z,46.50
2018-08-25T01:29:17.040Z,49.08
2018-08-25T01:31:47.486Z,50.22
2018-08-25T01:34:17.982Z,49.99
2018-08-25T01:36:48.221Z,51.12
2018-08-25T01:39:18.802Z,51.01
2018-08-25T01:41:49.432Z,51.26
2018-08-25T01:44:19.789Z,51.72
2018-08-25T01:46:50.436Z,50.50
2018-08-25T01:49:22.295Z,52.92
2018-08-25T01:51:52.587Z,54.65
2018-08-25T01:54:22.934Z,54.11
2018-08-25T01:56:53.201Z,52.16
2018-08-25T01:59:24.030Z,50.11
2018-08-25T02:01:54.337Z,49.18
2018-08-25T02:04:24.554Z,52.59
2018-08-25T02:06:55.178Z,53.01
2018-08-25T02:09:25.864Z,50.48
2018-08-25T02:11:56.516Z,49.61
2018-08-25T02:14:27.016Z,48.46
2018-08-25T02:16:57.551Z,48.43
2018-08-25T02:19:28.078Z,48.89
2018-08-25T02:21:58.574Z,48.90
2018-08-25T02:24:28.956Z,49.11
2018-08-25T02:26:59.801Z,48.87
2018-08-25T02:29:32.172Z,49.72
2018-08-25T02:32:02.636Z,49.35
2018-08-25T02:34:33.009Z,48.72
2018-08-25T02:37:03.860Z,48.72
2018-08-25T02:39:35.013Z,49.24
2018-08-25T02:42:05.553Z,48.82
2018-08-25T02:44:36.240Z,48.31
2018-08-25T02:47:06.656Z,48.55
2018-08-25T02:49:38.330Z,48.09
2018-08-25T02:52:08.771Z,48.56
2018-08-25T02:54:39.369Z,49.22
2018-08-25T02:57:09.903Z,50.59
2018-08-25T02:59:40.924Z,49.12
2018-08-25T03:02:11.057Z,48.99
2018-08-25T03:04:41.787Z,48.41
2018-08-25T03:07:12.553Z,47.46
2018-08-25T03:09:43.262Z,48.02
2018-08-25T03:12:13.576Z,47.30
2018-08-25T03:14:44.015Z,49.47
2018-08-25T03:17:14.209Z,50.15
2018-08-25T03:19:45.130Z,49.65
2018-08-25T03:22:15.932Z,49.79
2018-08-25T03:24:46.396Z,51.23
2018-08-25T03:27:16.944Z,51.70
2018-08-25T03:29:48.724Z,51.98
2018-08-25T03:32:19.328Z,50.12
2018-08-25T03:34:49.623Z,50.68
2018-08-25T03:37:20.082Z,52.38
2018-08-25T03:39:51.147Z,53.42
2018-08-25T03:42:21.690Z,51.35
2018-08-25T03:44:52.059Z,50.13
2018-08-25T03:47:22.379Z,49.67
2018-08-25T03:49:53.756Z,49.66
2018-08-25T03:52:23.889Z,49.09
2018-08-25T03:54:54.279Z,49.88
2018-08-25T03:57:25.001Z,49.33
2018-08-25T03:59:55.487Z,49.44
2018-08-25T04:02:25.898Z,50.12
2018-08-25T04:04:56.554Z,50.08
2018-08-25T04:07:27.485Z,49.25
2018-08-25T04:09:58.773Z,49.28
2018-08-25T04:12:29.064Z,49.15
2018-08-25T04:14:59.902Z,50.73
2018-08-25T04:17:30.662Z,49.47
2018-08-25T04:20:00.933Z,48.17
2018-08-25T04:22:31.777Z,49.76
2018-08-25T04:25:02.343Z,49.60
2018-08-25T04:27:33.166Z,48.97
2018-08-25T04:30:04.134Z,48.74
2018-08-25T04:32:34.870Z,48.76
2018-08-25T04:35:05.356Z,48.27
2018-08-25T04:37:35.630Z,47.56
2018-08-25T04:40:06.796Z,48.27
2018-08-25T04:42:37.230Z,47.90
2018-08-25T04:45:07.868Z,47.51
2018-08-25T04:47:38.263Z,46.80
2018-08-25T04:50:08.782Z,46.94
2018-08-25T04:52:39.254Z,48.95
2018-08-25T04:55:09.698Z,49.68
2018-08-25T04:57:40.107Z,49.90
2018-08-25T05:00:10.862Z,53.97
2018-08-25T05:02:41.486Z,56.07
2018-08-25T05:05:11.821Z,56.92
2018-08-25T05:07:42.589Z,56.46
2018-08-25T05:10:13.233Z,56.59
2018-08-25T05:12:43.719Z,54.46
2018-08-25T05:15:14.207Z,54.35
2018-08-25T05:17:44.839Z,55.22
2018-08-25T05:20:15.975Z,55.18
2018-08-25T05:22:46.493Z,54.70
2018-08-25T05:25:16.256Z,53.82
2018-08-25T05:27:46.102Z,51.11
2018-08-25T05:30:17.217Z,51.93
2018-08-25T05:32:47.118Z,48.92
2018-08-25T05:35:17.135Z,49.01
2018-08-25T05:37:46.971Z,50.07
2018-08-25T05:40:17.947Z,50.03
2018-08-25T05:42:48.474Z,49.21
2018-08-25T05:45:18.851Z,50.03
2018-08-25T05:47:48.710Z,48.67
2018-08-25T05:50:19.105Z,47.82
2018-08-25T05:52:49.476Z,47.46
2018-08-25T05:55:19.661Z,46.09
2018-08-25T05:57:50.043Z,44.90
2018-08-25T06:00:19.936Z,44.00
2018-08-25T06:02:49.666Z,42.88
2018-08-25T06:05:19.381Z,41.80
2018-08-25T06:07:49.098Z,41.33
2018-08-25T06:10:19.010Z,38.94
2018-08-25T06:12:48.852Z,38.68
2018-08-25T06:15:18.791Z,38.55
2018-08-25T06:17:48.709Z,39.66
2018-08-25T06:20:18.504Z,41.93
2018-08-25T06:22:48.367Z,40.63
2018-08-25T06:25:18.215Z,40.01
2018-08-25T06:27:48.034Z,39.87
2018-08-25T06:30:18.031Z,40.09
2018-08-25T06:32:48.170Z,38.98
2018-08-25T06:35:18.114Z,39.25
2018-08-25T06:37:47.947Z,37.59
2018-08-25T06:40:18.587Z,37.19
2018-08-25T06:42:48.905Z,36.79
2018-08-25T06:45:18.782Z,36.51
2018-08-25T06:47:48.747Z,34.90
2018-08-25T06:50:18.652Z,33.64
2018-08-25T06:52:48.438Z,34.88
2018-08-25T06:55:18.261Z,33.41
2018-08-25T06:57:48.014Z,33.90
2018-08-25T07:00:17.842Z,34.47
2018-08-25T07:02:47.593Z,33.90
2018-08-25T07:05:17.444Z,32.96
2018-08-25T07:07:47.369Z,32.87
2018-08-25T07:10:17.310Z,32.20
2018-08-25T07:12:47.139Z,33.06
2018-08-25T07:15:16.993Z,31.87
2018-08-25T07:17:46.760Z,32.09
2018-08-25T07:20:16.642Z,31.72
2018-08-25T07:22:46.646Z,32.13
2018-08-25T07:25:16.413Z,31.29
2018-08-25T07:27:45.995Z,31.24
2018-08-25T07:30:15.634Z,31.03
2018-08-25T07:32:45.722Z,32.51
2018-08-25T07:35:16.092Z,31.08
2018-08-25T07:37:45.948Z,30.86
2018-08-25T07:40:15.955Z,30.43
2018-08-25T07:42:45.749Z,28.13
2018-08-25T07:45:16.076Z,28.90
2018-08-25T07:47:45.929Z,28.17
2018-08-25T07:50:15.698Z,26.88
2018-08-25T07:52:45.489Z,29.04
2018-08-25T07:55:15.205Z,27.48
2018-08-25T07:57:44.961Z,28.11
2018-08-25T08:00:14.913Z,27.66
2018-08-25T08:02:44.845Z,26.50
2018-08-25T08:05:15.136Z,27.19
2018-08-25T08:07:45.584Z,26.24
2018-08-25T08:10:16.008Z,25.98
2018-08-25T08:12:45.838Z,26.35
2018-08-25T08:15:16.604Z,27.42
2018-08-25T08:17:47.023Z,27.88
2018-08-25T08:20:17.374Z,28.34
2018-08-25T08:22:47.268Z,29.37
2018-08-25T08:25:17.822Z,27.66
2018-08-25T08:27:48.343Z,26.78
2018-08-25T08:30:19.344Z,27.44
2018-08-25T08:32:49.883Z,27.77
2018-08-25T08:35:20.497Z,26.86
2018-08-25T08:37:51.047Z,25.78
2018-08-25T08:40:22.282Z,25.61
2018-08-25T08:42:52.651Z,24.42
2018-08-25T08:45:23.065Z,24.28
2018-08-25T08:47:53.803Z,24.01
2018-08-25T08:50:24.325Z,23.84
2018-08-25T08:52:54.268Z,22.45
2018-08-25T08:55:24.142Z,22.62
2018-08-25T08:57:53.942Z,23.34
2018-08-25T09:00:23.792Z,24.32
2018-08-25T09:02:53.717Z,24.00
2018-08-25T09:05:23.482Z,23.90
2018-08-25T09:07:53.282Z,22.51
2018-08-25T09:10:23.303Z,22.57
2018-08-25T09:12:53.003Z,22.08
2018-08-25T09:15:22.723Z,23.02
2018-08-25T09:17:52.598Z,20.99
2018-08-25T09:20:22.559Z,20.38
2018-08-25T09:22:52.655Z,21.41
2018-08-25T09:25:22.511Z,21.51
2018-08-25T09:27:52.361Z,20.42
2018-08-25T09:30:22.201Z,20.20
2018-08-25T09:32:52.021Z,19.47
2018-08-25T09:35:21.908Z,18.85
2018-08-25T09:37:52.055Z,19.45
2018-08-25T09:40:21.934Z,18.82
2018-08-25T09:42:51.739Z,18.41
2018-08-25T09:45:21.572Z,20.77
2018-08-25T09:47:51.374Z,20.34
2018-08-25T09:50:21.252Z,19.26
2018-08-25T09:52:51.099Z,19.96
2018-08-25T09:55:20.941Z,19.66
2018-08-25T09:57:50.887Z,18.73
2018-08-25T10:00:20.756Z,17.32
2018-08-25T10:02:50.654Z,18.88
2018-08-25T10:05:20.527Z,17.62
2018-08-25T10:07:50.297Z,18.19
2018-08-25T10:10:20.217Z,19.53
2018-08-25T10:12:50.038Z,18.79
2018-08-25T10:15:19.909Z,19.12
2018-08-25T10:17:49.753Z,19.08
2018-08-25T10:20:19.600Z,19.02
2018-08-25T10:22:49.483Z,18.01
2018-08-25T10:25:19.351Z,18.28
2018-08-25T10:27:49.234Z,18.07
2018-08-25T10:30:19.068Z,18.43
2018-08-25T10:32:48.957Z,18.21
2018-08-25T10:35:18.680Z,17.90
2018-08-25T10:37:48.599Z,19.27
2018-08-25T10:40:18.830Z,18.41
2018-08-25T10:42:48.707Z,17.91
2018-08-25T10:45:18.589Z,17.92
2018-08-25T10:47:48.602Z,17.84
2018-08-25T10:50:18.417Z,17.11
2018-08-25T10:52:48.230Z,17.31
2018-08-25T10:55:18.415Z,16.30
2018-08-25T10:57:48.280Z,17.21
2018-08-25T11:00:18.277Z,16.94
2018-08-25T11:02:48.086Z,16.15
2018-08-25T11:05:17.979Z,15.62
2018-08-25T11:07:47.680Z,15.58
2018-08-25T11:10:17.494Z,16.82
2018-08-25T11:12:47.278Z,16.20
2018-08-25T11:15:17.151Z,17.03
2018-08-25T11:17:47.020Z,17.70
2018-08-25T11:20:16.744Z,18.98
2018-08-25T11:22:46.419Z,18.83
2018-08-25T11:25:16.332Z,19.37
2018-08-25T11:27:46.134Z,20.29
2018-08-25T11:30:16.150Z,20.31
2018-08-25T11:32:46.136Z,21.31
2018-08-25T11:35:16.018Z,21.84
2018-08-25T11:37:46.565Z,21.72
2018-08-25T11:40:17.612Z,21.44
2018-08-25T11:42:48.711Z,22.63
2018-08-25T11:45:19.338Z,22.26
2018-08-25T11:47:49.783Z,20.62
2018-08-25T11:50:20.718Z,20.15
2018-08-25T11:52:51.284Z,19.12
2018-08-25T11:55:21.160Z,20.82
2018-08-25T11:57:52.225Z,21.79
2018-08-25T12:00:23.955Z,22.68
2018-08-25T12:02:54.424Z,22.88
2018-08-25T12:05:25.247Z,24.10
2018-08-25T12:07:55.546Z,23.27
2018-08-25T12:10:26.445Z,23.11
2018-08-25T12:12:56.934Z,23.96
2018-08-25T12:15:27.662Z,24.27
2018-08-25T12:17:58.466Z,24.69
2018-08-25T12:20:29.569Z,24.09
2018-08-25T12:23:00.047Z,22.91
2018-08-25T12:25:30.902Z,23.62
2018-08-25T12:28:01.100Z,25.35
2018-08-25T12:30:31.099Z,24.79
2018-08-25T12:33:00.665Z,24.89
2018-08-25T12:35:30.399Z,24.83
2018-08-25T12:38:00.061Z,25.98
2018-08-25T12:40:29.872Z,25.76
2018-08-25T12:43:00.171Z,25.36
2018-08-25T12:45:30.350Z,26.55
2018-08-25T12:48:00.281Z,27.67
2018-08-25T12:50:31.109Z,28.38
2018-08-25T12:53:00.739Z,30.21
2018-08-25T12:55:30.554Z,34.70
2018-08-25T12:58:00.362Z,34.68
2018-08-25T13:00:31.089Z,36.93
2018-08-25T13:03:00.930Z,36.99
2018-08-25T13:05:30.917Z,39.32
2018-08-25T13:08:00.798Z,40.56
2018-08-25T13:10:31.535Z,38.21
2018-08-25T13:13:01.492Z,37.91
2018-08-25T13:15:31.355Z,35.81
2018-08-25T13:18:01.230Z,36.02
2018-08-25T13:20:32.180Z,34.80
2018-08-25T13:23:02.072Z,33.20
2018-08-25T13:25:32.018Z,30.50
2018-08-25T13:28:01.890Z,30.70
2018-08-25T13:30:32.435Z,34.23
2018-08-25T13:33:02.159Z,32.89
2018-08-25T13:35:32.040Z,29.40
2018-08-25T13:38:01.925Z,28.10
2018-08-25T13:40:31.816Z,28.29
2018-08-25T13:43:01.611Z,29.28
2018-08-25T13:45:31.905Z,28.23
2018-08-25T13:48:01.809Z,27.83
2018-08-25T13:50:31.608Z,29.05
2018-08-25T13:53:01.620Z,27.96
2018-08-25T13:55:31.682Z,29.28
2018-08-25T13:58:01.519Z,30.48
2018-08-25T14:00:31.490Z,30.12
2018-08-25T14:03:01.411Z,27.37
2018-08-25T14:05:31.283Z,27.68
2018-08-25T14:08:01.226Z,27.03
2018-08-25T14:10:31.069Z,26.93
2018-08-25T14:13:01.134Z,26.93
2018-08-25T14:15:31.080Z,27.14
2018-08-25T14:18:01.061Z,27.85
2018-08-25T14:20:30.971Z,26.85
2018-08-25T14:23:00.897Z,27.36
2018-08-25T14:25:30.683Z,27.57
2018-08-25T14:28:00.611Z,27.29
2018-08-25T14:30:30.429Z,28.13
2018-08-25T14:33:00.545Z,28.73
2018-08-25T14:35:30.433Z,29.34
2018-08-25T14:38:00.402Z,28.73
2018-08-25T14:40:30.236Z,28.52
2018-08-25T14:43:00.206Z,29.26
2018-08-25T14:45:29.961Z,28.56
2018-08-25T14:48:00.347Z,29.11
2018-08-25T14:50:30.079Z,29.95
2018-08-25T14:52:59.977Z,29.40
2018-08-25T14:55:29.834Z,30.52
2018-08-25T14:57:59.929Z,30.42
2018-08-25T15:00:29.820Z,30.42
2018-08-25T15:03:00.083Z,30.13
2018-08-25T15:05:30.355Z,31.89
2018-08-25T15:08:00.541Z,32.17
2018-08-25T15:10:31.498Z,35.01
2018-08-25T15:13:01.047Z,33.30
2018-08-25T15:15:30.792Z,41.61
2018-08-25T15:18:00.596Z,43.88
2018-08-25T15:20:30.881Z,44.61
2018-08-25T15:23:00.678Z,42.97
2018-08-25T15:25:30.558Z,47.68
2018-08-25T15:28:00.412Z,43.85
2018-08-25T15:30:30.400Z,45.80
2018-08-25T15:33:00.244Z,44.25
2018-08-25T15:35:30.007Z,46.11
2018-08-25T15:38:00.004Z,48.22
2018-08-25T15:40:29.784Z,46.92
2018-08-25T15:42:59.636Z,48.86
2018-08-25T15:45:29.477Z,52.52
2018-08-25T15:47:59.345Z,48.14
2018-08-25T15:50:29.597Z,54.46
2018-08-25T15:52:59.423Z,51.63
2018-08-25T15:55:29.327Z,49.97
2018-08-25T15:57:59.471Z,54.00
2018-08-25T16:00:29.312Z,51.79
2018-08-25T16:02:59.395Z,49.80
2018-08-25T16:05:29.201Z,50.75
2018-08-25T16:07:59.154Z,50.49
2018-08-25T16:10:28.914Z,50.79
2018-08-25T16:12:58.851Z,52.95
2018-08-25T16:15:28.541Z,54.18
2018-08-25T16:17:58.387Z,52.44
2018-08-25T16:20:28.116Z,51.58
2018-08-25T16:22:58.284Z,51.94
2018-08-25T16:25:27.973Z,51.37
2018-08-25T16:27:57.753Z,51.90
2018-08-25T16:30:27.827Z,51.80
2018-08-25T16:32:57.570Z,51.03
2018-08-25T16:35:27.417Z,49.05
2018-08-25T16:37:57.354Z,49.59
2018-08-25T16:40:27.160Z,48.38
2018-08-25T16:42:57.007Z,46.81
2018-08-25T16:45:26.812Z,46.10
2018-08-25T16:47:56.576Z,46.45
2018-08-25T16:50:26.383Z,45.04
2018-08-25T16:52:56.360Z,49.32
2018-08-25T16:55:26.551Z,50.60
2018-08-25T16:57:56.349Z,48.74
2018-08-25T17:00:26.103Z,49.11
2018-08-25T17:02:57.294Z,49.58
2018-08-25T17:05:27.227Z,49.19
2018-08-25T17:07:57.038Z,50.15
2018-08-25T17:10:26.804Z,46.53
2018-08-25T17:12:57.271Z,45.94
2018-08-25T17:15:27.509Z,47.75
2018-08-25T17:17:57.488Z,52.40
2018-08-25T17:20:28.169Z,54.08
2018-08-25T17:22:57.937Z,47.35
2018-08-25T17:25:27.547Z,48.04
2018-08-25T17:27:57.472Z,46.18
2018-08-25T17:30:27.992Z,45.56
2018-08-25T17:32:57.618Z,46.09
2018-08-25T17:35:27.407Z,45.10
2018-08-25T17:37:57.485Z,46.27
2018-08-25T17:40:27.233Z,45.96
2018-08-25T17:42:57.066Z,45.59
2018-08-25T17:45:26.986Z,45.16
2018-08-25T17:47:56.725Z,46.69
2018-08-25T17:50:26.739Z,46.24
2018-08-25T17:52:56.655Z,46.64
2018-08-25T17:55:26.942Z,45.76
2018-08-25T17:57:56.822Z,44.95
2018-08-25T18:00:26.728Z,46.48
2018-08-25T18:02:56.608Z,45.80
2018-08-25T18:05:26.402Z,46.12
2018-08-25T18:07:56.274Z,46.19
2018-08-25T18:10:25.899Z,46.45
2018-08-25T18:12:55.685Z,45.35
2018-08-25T18:15:25.484Z,45.05
2018-08-25T18:17:55.255Z,45.17
2018-08-25T18:20:25.096Z,44.55
2018-08-25T18:22:55.045Z,46.92
2018-08-25T18:25:25.132Z,46.19
2018-08-25T18:27:54.996Z,46.50
2018-08-25T18:30:24.845Z,45.58
2018-08-25T18:32:54.682Z,45.82
2018-08-25T18:35:24.543Z,44.48
2018-08-25T18:37:54.308Z,45.36
2018-08-25T18:40:24.090Z,44.87
2018-08-25T18:42:53.978Z,44.67
2018-08-25T18:45:24.207Z,44.75
2018-08-25T18:47:54.078Z,45.25
2018-08-25T18:50:23.870Z,44.57
2018-08-25T18:52:53.658Z,45.41
2018-08-25T18:55:23.451Z,45.06
2018-08-25T18:57:53.667Z,44.72
2018-08-25T19:00:23.514Z,45.55
2018-08-25T19:02:53.305Z,45.42
2018-08-25T19:05:23.650Z,45.41
2018-08-25T19:07:54.117Z,45.04
2018-08-25T19:10:24.535Z,46.33
2018-08-25T19:12:54.434Z,45.35
2018-08-25T19:15:24.304Z,45.66
2018-08-25T19:17:54.342Z,46.29
2018-08-25T19:20:23.999Z,45.77
2018-08-25T19:22:53.823Z,45.45
2018-08-25T19:25:23.767Z,44.59
2018-08-25T19:27:53.683Z,44.86
2018-08-25T19:30:23.626Z,45.54
2018-08-25T19:32:53.449Z,45.87
2018-08-25T19:35:23.238Z,47.99
2018-08-25T19:37:53.134Z,47.64
2018-08-25T19:40:22.895Z,46.61
2018-08-25T19:42:52.689Z,46.75
2018-08-25T19:45:22.515Z,46.75
2018-08-25T19:47:52.398Z,46.40
2018-08-25T19:50:22.360Z,46.14
2018-08-25T19:52:52.185Z,45.88
2018-08-25T19:55:22.119Z,45.55
2018-08-25T19:57:52.038Z,45.96
2018-08-25T20:00:22.525Z,46.65
2018-08-25T20:02:53.196Z,46.31
2018-08-25T20:05:23.408Z,46.70
2018-08-25T20:07:53.361Z,46.56
2018-08-25T20:10:23.500Z,46.97
2018-08-25T20:12:53.473Z,48.11
2018-08-25T20:15:23.592Z,47.78
2018-08-25T20:17:53.943Z,46.32
2018-08-25T20:20:24.451Z,46.41
2018-08-25T20:22:54.566Z,45.63
2018-08-25T20:25:24.467Z,47.28
2018-08-25T20:27:54.364Z,47.81
2018-08-25T20:30:24.859Z,47.81
2018-08-25T20:32:54.816Z,48.07
2018-08-25T20:35:24.598Z,47.57
2018-08-25T20:37:54.554Z,47.82
2018-08-25T20:40:25.198Z,48.12
2018-08-25T20:42:55.142Z,46.97
2018-08-25T20:45:25.016Z,47.56
2018-08-25T20:47:55.003Z,48.33
2018-08-25T20:50:25.726Z,48.35
2018-08-25T20:52:55.566Z,47.81
2018-08-25T20:55:25.436Z,47.42
2018-08-25T20:57:55.266Z,49.62
2018-08-25T21:00:25.656Z,48.65
2018-08-25T21:02:55.639Z,48.25
2018-08-25T21:05:25.527Z,48.54
2018-08-25T21:07:55.286Z,47.97
2018-08-25T21:10:25.217Z,48.63
2018-08-25T21:12:55.067Z,48.75
2018-08-25T21:15:24.877Z,48.81
2018-08-25T21:17:55.113Z,48.75
2018-08-25T21:20:24.909Z,49.70
2018-08-25T21:22:54.771Z,49.21
2018-08-25T21:25:25.167Z,49.80
2018-08-25T21:27:55.092Z,49.54
2018-08-25T21:30:24.907Z,51.03
2018-08-25T21:32:54.700Z,50.00
2018-08-25T21:35:24.467Z,48.91
2018-08-25T21:37:54.241Z,49.15
2018-08-25T21:40:24.070Z,48.96
2018-08-25T21:42:53.933Z,48.60
2018-08-25T21:45:23.850Z,49.56
2018-08-25T21:47:53.624Z,49.15
2018-08-25T21:50:23.364Z,48.79
2018-08-25T21:52:53.103Z,48.81
2018-08-25T21:55:22.898Z,49.35
2018-08-25T21:57:52.677Z,49.33
2018-08-25T22:00:22.560Z,48.98
2018-08-25T22:02:53.336Z,49.89
2018-08-25T22:05:23.557Z,50.20
2018-08-25T22:07:53.394Z,50.51
2018-08-25T22:10:23.718Z,50.54
2018-08-25T22:12:53.305Z,50.85
2018-08-25T22:15:23.621Z,50.67
2018-08-25T22:17:54.177Z,50.49
2018-08-25T22:20:25.320Z,51.66
2018-08-25T22:22:56.467Z,51.57
2018-08-25T22:25:26.433Z,51.70
2018-08-25T22:27:56.217Z,51.15
2018-08-25T22:30:26.707Z,51.00
2018-08-25T22:32:57.144Z,50.84
2018-08-25T22:35:28.137Z,50.80
2018-08-25T22:37:58.786Z,50.95
2018-08-25T22:40:29.163Z,50.44
2018-08-25T22:42:59.333Z,50.92
2018-08-25T22:45:29.747Z,49.93
2018-08-25T22:47:59.966Z,50.47
2018-08-25T22:50:31.018Z,51.13
2018-08-25T22:53:01.494Z,50.71
2018-08-25T22:55:31.940Z,51.32
2018-08-25T22:58:02.526Z,51.44
2018-08-25T23:00:33.576Z,51.15
2018-08-25T23:03:04.752Z,51.28
2018-08-25T23:05:35.033Z,51.42
2018-08-25T23:08:05.570Z,51.95
2018-08-25T23:10:36.892Z,50.90
2018-08-25T23:13:07.503Z,51.69
2018-08-25T23:15:37.860Z,52.65
2018-08-25T23:18:08.215Z,51.84
2018-08-25T23:20:38.526Z,53.58
2018-08-25T23:23:09.325Z,54.54
2018-08-25T23:25:39.759Z,53.31
2018-08-25T23:28:10.310Z,53.00
2018-08-25T23:30:41.137Z,52.08
2018-08-25T23:33:11.756Z,52.07
2018-08-25T23:35:42.111Z,52.30
2018-08-25T23:38:12.473Z,52.95
2018-08-25T23:40:43.074Z,52.28
2018-08-25T23:43:13.694Z,52.35
2018-08-25T23:45:44.753Z,52.91
2018-08-25T23:48:15.129Z,52.73
2018-08-25T23:50:45.738Z,52.26
2018-08-25T23:53:16.068Z,52.82
2018-08-25T23:55:47.749Z,52.62
2018-08-25T23:58:18.132Z,52.19
